createdAt,value
2019-03-06T00:01:38.672Z,0
2019-03-06T00:04:44.626Z,0
2019-03-06T00:07:50.500Z,0
2019-03-06T00:10:56.439Z,0
2019-03-06T00:14:02.501Z,0
2019-03-06T00:17:08.558Z,0
2019-03-06T00:20:14.437Z,0
2019-03-06T00:23:20.447Z,0
2019-03-06T00:26:26.455Z,0
2019-03-06T00:29:32.409Z,0
2019-03-06T00:32:38.273Z,0
2019-03-06T00:35:44.222Z,0
2019-03-06T00:38:50.195Z,0
2019-03-06T00:41:56.245Z,0
2019-03-06T00:45:02.198Z,0
2019-03-06T00:48:08.118Z,0
2019-03-06T00:51:14.018Z,0
2019-03-06T00:54:19.974Z,0
2019-03-06T00:57:25.914Z,0
2019-03-06T01:00:31.895Z,0
2019-03-06T01:03:37.955Z,0
2019-03-06T01:06:43.922Z,0
2019-03-06T01:09:49.979Z,0
2019-03-06T01:12:55.915Z,0
2019-03-06T01:16:01.999Z,0
2019-03-06T01:19:08.060Z,0
2019-03-06T01:22:14.028Z,0
2019-03-06T01:25:20.088Z,0
2019-03-06T01:28:26.048Z,0
2019-03-06T01:31:32.049Z,0
2019-03-06T01:34:38.112Z,0
2019-03-06T01:37:43.993Z,0
2019-03-06T01:40:49.966Z,0
2019-03-06T01:43:55.943Z,0
2019-03-06T01:47:02.000Z,0
2019-03-06T01:50:10.991Z,0
2019-03-06T01:53:17.003Z,0
2019-03-06T01:56:22.878Z,0
2019-03-06T01:59:28.817Z,0
2019-03-06T02:02:34.873Z,0
2019-03-06T02:05:40.836Z,0
2019-03-06T02:08:46.892Z,0
2019-03-06T02:11:53.017Z,0
2019-03-06T02:14:58.920Z,0
2019-03-06T02:18:05.305Z,0
2019-03-06T02:21:11.247Z,0
2019-03-06T02:24:17.307Z,0
2019-03-06T02:27:23.267Z,0
2019-03-06T02:30:29.232Z,0
2019-03-06T02:33:38.366Z,0
2019-03-06T02:36:44.428Z,0
2019-03-06T02:39:50.498Z,0
2019-03-06T02:42:56.428Z,0
2019-03-06T02:46:02.554Z,0
2019-03-06T02:49:08.956Z,0
2019-03-06T02:52:14.946Z,0
2019-03-06T02:55:21.003Z,0
2019-03-06T02:58:27.109Z,0
2019-03-06T03:01:33.986Z,0
2019-03-06T03:04:40.155Z,0
2019-03-06T03:07:48.721Z,0
2019-03-06T03:10:54.781Z,0
2019-03-06T03:14:01.151Z,0
2019-03-06T03:17:07.286Z,0
2019-03-06T03:20:13.149Z,0
2019-03-06T03:23:19.237Z,0
2019-03-06T03:26:26.241Z,0
2019-03-06T03:29:32.393Z,0
2019-03-06T03:32:38.546Z,0
2019-03-06T03:35:44.609Z,0
2019-03-06T03:38:50.984Z,0
2019-03-06T03:41:57.961Z,0
2019-03-06T03:45:04.106Z,0
2019-03-06T03:48:10.090Z,0
2019-03-06T03:51:16.165Z,0.1
2019-03-06T03:54:22.426Z,205.9
2019-03-06T03:57:28.475Z,240.5
2019-03-06T04:00:34.546Z,244.8
2019-03-06T04:03:40.598Z,247.7
2019-03-06T04:06:46.676Z,247.7
2019-03-06T04:09:52.633Z,247.7
2019-03-06T04:12:58.902Z,247.7
2019-03-06T04:16:04.877Z,247.7
2019-03-06T04:19:10.808Z,247.7
2019-03-06T04:22:16.951Z,247.7
2019-03-06T04:25:24.172Z,247.7
2019-03-06T04:28:31.155Z,250.6
2019-03-06T04:31:37.306Z,250.6
2019-03-06T04:34:43.271Z,250.6
2019-03-06T04:37:50.529Z,250.6
2019-03-06T04:40:56.804Z,250.6
2019-03-06T04:44:02.761Z,250.6
2019-03-06T04:47:08.829Z,250.6
2019-03-06T04:50:15.984Z,250.6
2019-03-06T04:53:22.295Z,250.6
2019-03-06T04:56:28.263Z,250.6
2019-03-06T04:59:34.195Z,252
2019-03-06T05:02:41.349Z,250.6
2019-03-06T05:05:47.448Z,252
2019-03-06T05:08:53.425Z,250.6
2019-03-06T05:11:59.361Z,252
2019-03-06T05:15:06.035Z,252
2019-03-06T05:18:12.530Z,253.4
2019-03-06T05:21:18.595Z,254.9
2019-03-06T05:24:24.470Z,254.9
2019-03-06T05:27:30.933Z,257.8
2019-03-06T05:30:37.700Z,260.6
2019-03-06T05:33:43.575Z,260.6
2019-03-06T05:36:49.618Z,257.8
2019-03-06T05:39:56.406Z,257.8
2019-03-06T05:43:03.702Z,254.9
2019-03-06T05:46:09.699Z,249.1
2019-03-06T05:49:15.715Z,254.9
2019-03-06T05:52:22.497Z,259.2
2019-03-06T05:55:28.446Z,262.1
2019-03-06T05:58:34.339Z,275
2019-03-06T06:01:40.426Z,273.6
2019-03-06T06:04:46.837Z,280.8
2019-03-06T06:07:52.902Z,276.5
2019-03-06T06:10:58.860Z,276.5
2019-03-06T06:14:04.797Z,275
2019-03-06T06:17:11.634Z,254.9
2019-03-06T06:20:17.561Z,260.6
2019-03-06T06:23:23.597Z,246.2
2019-03-06T06:26:29.589Z,247.7
2019-03-06T06:29:36.436Z,246.2
2019-03-06T06:32:42.433Z,244.8
2019-03-06T06:35:48.484Z,246.2
2019-03-06T06:38:54.444Z,246.2
2019-03-06T06:42:01.400Z,249.1
2019-03-06T06:45:07.259Z,249.1
2019-03-06T06:48:13.347Z,250.6
2019-03-06T06:51:19.467Z,247.7
2019-03-06T06:54:25.873Z,247.7
2019-03-06T06:57:31.833Z,254.9
2019-03-06T07:00:41.486Z,254.9
2019-03-06T07:03:47.442Z,253.4
2019-03-06T07:06:53.361Z,254.9
2019-03-06T07:09:59.363Z,254.9
2019-03-06T07:13:05.652Z,254.9
2019-03-06T07:16:12.617Z,252
2019-03-06T07:19:19.594Z,254.9
2019-03-06T07:22:26.506Z,256.3
2019-03-06T07:25:33.364Z,263.5
2019-03-06T07:28:39.228Z,256.3
2019-03-06T07:31:45.178Z,254.9
2019-03-06T07:34:51.929Z,256.3
2019-03-06T07:37:57.908Z,265
2019-03-06T07:41:03.868Z,265
2019-03-06T07:44:09.828Z,263.5
2019-03-06T07:47:15.790Z,259.2
2019-03-06T07:50:21.724Z,250.6
2019-03-06T07:53:27.713Z,259.2
2019-03-06T07:56:33.666Z,260.6
2019-03-06T07:59:39.634Z,267.8
2019-03-06T08:02:45.773Z,263.5
2019-03-06T08:05:51.648Z,263.5
2019-03-06T08:08:57.607Z,269.3
2019-03-06T08:12:03.694Z,265
2019-03-06T08:15:11.072Z,269.3
2019-03-06T08:18:18.937Z,272.2
2019-03-06T08:21:25.216Z,263.5
2019-03-06T08:24:33.240Z,259.2
2019-03-06T08:27:39.489Z,270.7
2019-03-06T08:30:46.409Z,267.8
2019-03-06T08:33:55.298Z,266.4
2019-03-06T08:37:01.175Z,260.6
2019-03-06T08:40:07.240Z,259.2
2019-03-06T08:43:13.221Z,260.6
2019-03-06T08:46:19.304Z,262.1
2019-03-06T08:49:25.247Z,256.3
2019-03-06T08:52:31.203Z,259.2
2019-03-06T08:55:37.266Z,236.2
2019-03-06T08:58:43.421Z,246.2
2019-03-06T09:01:49.289Z,263.5
2019-03-06T09:05:05.488Z,267.8
2019-03-06T09:08:11.949Z,266.4
2019-03-06T09:11:17.923Z,266.4
2019-03-06T09:14:23.947Z,266.4
2019-03-06T09:17:29.875Z,262.1
2019-03-06T09:20:43.418Z,265
2019-03-06T09:23:49.531Z,266.4
2019-03-06T09:26:56.489Z,262.1
2019-03-06T09:30:04.398Z,262.1
2019-03-06T09:33:19.183Z,259.2
2019-03-06T09:36:25.120Z,260.6
2019-03-06T09:39:31.099Z,262.1
2019-03-06T09:42:37.406Z,257.8
2019-03-06T09:45:43.333Z,254.9
2019-03-06T09:48:49.392Z,259.2
2019-03-06T09:51:59.334Z,254.9
2019-03-06T09:55:06.026Z,229
2019-03-06T09:58:11.930Z,253.4
2019-03-06T10:01:17.929Z,250.6
2019-03-06T10:04:23.788Z,252
2019-03-06T10:07:30.466Z,218.9
2019-03-06T10:10:43.282Z,257.8
2019-03-06T10:14:03.053Z,260.6
2019-03-06T10:17:09.116Z,259.2
2019-03-06T10:20:25.646Z,260.6
2019-03-06T10:23:31.828Z,262.1
2019-03-06T10:26:37.797Z,262.1
2019-03-06T10:29:44.026Z,253.4
2019-03-06T10:32:50.211Z,254.9
2019-03-06T10:35:56.273Z,262.1
2019-03-06T10:39:02.337Z,257.8
2019-03-06T10:42:09.166Z,253.4
2019-03-06T10:45:17.328Z,262.1
2019-03-06T10:48:25.613Z,262.1
2019-03-06T10:51:33.508Z,262.1
2019-03-06T10:54:47.774Z,262.1
2019-03-06T10:57:53.846Z,262.1
2019-03-06T11:01:00.028Z,263.5
2019-03-06T11:04:06.180Z,263.5
2019-03-06T11:07:12.352Z,262.1
2019-03-06T11:10:29.978Z,263.5
2019-03-06T11:13:38.292Z,265
2019-03-06T11:16:47.336Z,266.4
2019-03-06T11:19:54.461Z,266.4
2019-03-06T11:23:00.672Z,267.8
2019-03-06T11:26:06.816Z,256.3
2019-03-06T11:29:12.880Z,262.1
2019-03-06T11:32:19.987Z,266.4
2019-03-06T11:35:29.011Z,267.8
2019-03-06T11:38:35.055Z,266.4
2019-03-06T11:41:41.138Z,265
2019-03-06T11:44:48.117Z,265
2019-03-06T11:47:54.981Z,266.4
2019-03-06T11:51:00.965Z,265
2019-03-06T11:54:07.152Z,265
2019-03-06T11:57:18.990Z,263.5
2019-03-06T12:00:24.901Z,263.5
2019-03-06T12:03:33.096Z,254.9
2019-03-06T12:06:39.161Z,262.1
2019-03-06T12:09:45.625Z,250.6
2019-03-06T12:12:51.702Z,250.6
2019-03-06T12:15:58.874Z,252
2019-03-06T12:19:05.243Z,249.1
2019-03-06T12:22:11.492Z,252
2019-03-06T12:25:17.383Z,249.1
2019-03-06T12:28:23.532Z,249.1
2019-03-06T12:31:29.723Z,247.7
2019-03-06T12:34:35.751Z,247.7
2019-03-06T12:37:49.930Z,250.6
2019-03-06T12:40:55.874Z,252
2019-03-06T12:44:12.080Z,249.1
2019-03-06T12:47:18.338Z,262.1
2019-03-06T12:50:24.284Z,250.6
2019-03-06T12:53:30.369Z,250.6
2019-03-06T12:56:37.414Z,249.1
2019-03-06T12:59:43.526Z,249.1
2019-03-06T13:02:49.581Z,257.8
2019-03-06T13:05:56.639Z,249.1
2019-03-06T13:09:02.843Z,249.1
2019-03-06T13:12:09.205Z,249.1
2019-03-06T13:15:15.438Z,250.6
2019-03-06T13:18:21.645Z,260.6
2019-03-06T13:21:31.657Z,260.6
2019-03-06T13:24:38.064Z,257.8
2019-03-06T13:27:59.114Z,254.9
2019-03-06T13:31:10.557Z,250.6
2019-03-06T13:34:16.593Z,259.2
2019-03-06T13:37:22.679Z,257.8
2019-03-06T13:40:28.635Z,259.2
2019-03-06T13:43:35.310Z,260.6
2019-03-06T13:46:41.476Z,257.8
2019-03-06T13:49:49.083Z,254.9
2019-03-06T13:52:55.092Z,252
2019-03-06T13:56:01.278Z,259.2
2019-03-06T13:59:07.254Z,256.3
2019-03-06T14:02:13.415Z,253.4
2019-03-06T14:05:19.539Z,254.9
2019-03-06T14:08:25.660Z,253.4
2019-03-06T14:11:32.303Z,253.4
2019-03-06T14:14:39.086Z,252
2019-03-06T14:17:45.165Z,253.4
2019-03-06T14:20:51.541Z,253.4
2019-03-06T14:23:57.674Z,252
2019-03-06T14:27:03.840Z,252
2019-03-06T14:30:09.924Z,252
2019-03-06T14:33:16.062Z,249.1
2019-03-06T14:36:23.173Z,252
2019-03-06T14:39:29.312Z,252
2019-03-06T14:42:35.892Z,250.6
2019-03-06T14:45:41.953Z,252
2019-03-06T14:48:47.930Z,252
2019-03-06T14:51:54.001Z,252
2019-03-06T14:54:59.955Z,250.6
2019-03-06T14:58:08.110Z,250.6
2019-03-06T15:01:14.105Z,250.6
2019-03-06T15:04:20.805Z,249.1
2019-03-06T15:07:26.873Z,244.8
2019-03-06T15:10:33.034Z,246.2
2019-03-06T15:13:48.494Z,246.2
2019-03-06T15:16:55.445Z,246.2
2019-03-06T15:20:01.638Z,246.2
2019-03-06T15:23:07.805Z,246.2
2019-03-06T15:26:14.184Z,246.2
2019-03-06T15:29:20.452Z,246.2
2019-03-06T15:32:26.618Z,243.4
2019-03-06T15:35:32.884Z,243.4
2019-03-06T15:38:39.729Z,243.4
2019-03-06T15:41:45.959Z,243.4
2019-03-06T15:44:51.905Z,241.9
2019-03-06T15:48:00.107Z,241.9
2019-03-06T15:51:06.275Z,240.5
2019-03-06T15:54:12.950Z,240.5
2019-03-06T15:57:18.983Z,240.5
2019-03-06T16:00:24.971Z,240.5
2019-03-06T16:03:31.038Z,240.5
2019-03-06T16:06:37.079Z,240.5
2019-03-06T16:09:43.094Z,240.5
2019-03-06T16:12:49.212Z,239
2019-03-06T16:15:55.902Z,239
2019-03-06T16:19:01.945Z,239
2019-03-06T16:22:08.115Z,239
2019-03-06T16:25:14.194Z,240.5
2019-03-06T16:28:20.329Z,240.5
2019-03-06T16:31:26.310Z,240.5
2019-03-06T16:34:32.436Z,240.5
2019-03-06T16:37:39.150Z,240.5
2019-03-06T16:40:45.102Z,240.5
2019-03-06T16:43:51.315Z,240.5
2019-03-06T16:47:06.110Z,240.5
2019-03-06T16:50:18.852Z,240.5
2019-03-06T16:53:25.001Z,240.5
2019-03-06T16:56:33.609Z,240.5
2019-03-06T16:59:39.682Z,240.5
2019-03-06T17:02:46.158Z,240.5
2019-03-06T17:05:52.220Z,241.9
2019-03-06T17:09:00.236Z,240.5
2019-03-06T17:12:06.417Z,241.9
2019-03-06T17:15:12.452Z,241.9
2019-03-06T17:18:18.421Z,240.5
2019-03-06T17:21:24.567Z,241.9
2019-03-06T17:24:31.045Z,241.9
2019-03-06T17:27:37.315Z,241.9
2019-03-06T17:30:43.707Z,241.9
2019-03-06T17:33:49.863Z,243.4
2019-03-06T17:36:56.029Z,243.4
2019-03-06T17:40:02.187Z,243.4
2019-03-06T17:43:08.236Z,243.4
2019-03-06T17:46:14.207Z,243.4
2019-03-06T17:49:20.279Z,243.4
2019-03-06T17:52:27.229Z,241.9
2019-03-06T17:55:33.402Z,241.9
2019-03-06T17:58:39.381Z,241.9
2019-03-06T18:01:45.529Z,241.9
2019-03-06T18:04:53.535Z,241.9
2019-03-06T18:08:00.008Z,244.8
2019-03-06T18:11:06.085Z,241.9
2019-03-06T18:14:12.775Z,243.4
2019-03-06T18:17:18.794Z,241.9
2019-03-06T18:20:24.895Z,241.9
2019-03-06T18:23:31.069Z,243.4
2019-03-06T18:26:41.823Z,241.9
2019-03-06T18:29:48.092Z,244.8
2019-03-06T18:32:54.050Z,243.4
2019-03-06T18:36:02.776Z,243.4
2019-03-06T18:39:08.788Z,243.4
2019-03-06T18:42:14.894Z,244.8
2019-03-06T18:45:20.965Z,243.4
2019-03-06T18:48:27.031Z,244.8
2019-03-06T18:51:33.093Z,243.4
2019-03-06T18:54:39.131Z,244.8
2019-03-06T18:57:45.586Z,244.8
2019-03-06T19:00:52.708Z,243.4
2019-03-06T19:04:01.785Z,244.8
2019-03-06T19:07:07.911Z,243.4
2019-03-06T19:10:13.866Z,244.8
2019-03-06T19:13:19.924Z,243.4
2019-03-06T19:16:25.987Z,244.8
2019-03-06T19:19:32.123Z,244.8
2019-03-06T19:22:39.251Z,244.8
2019-03-06T19:25:45.251Z,244.8
2019-03-06T19:28:51.355Z,243.4
2019-03-06T19:31:57.634Z,240.5
2019-03-06T19:35:03.798Z,240.5
2019-03-06T19:38:09.756Z,241.9
2019-03-06T19:41:15.807Z,241.9
2019-03-06T19:44:21.886Z,243.4
2019-03-06T19:47:28.018Z,243.4
2019-03-06T19:50:34.108Z,243.4
2019-03-06T19:53:41.079Z,241.9
2019-03-06T19:56:47.092Z,241.9
2019-03-06T19:59:53.525Z,241.9
2019-03-06T20:02:59.556Z,241.9
2019-03-06T20:06:05.765Z,241.9
2019-03-06T20:09:11.903Z,243.4
2019-03-06T20:12:17.869Z,241.9
2019-03-06T20:15:23.932Z,241.9
2019-03-06T20:18:29.892Z,240.5
2019-03-06T20:21:35.934Z,0
2019-03-06T20:24:43.147Z,0
2019-03-06T20:27:51.058Z,0
2019-03-06T20:30:59.098Z,0
2019-03-06T20:34:05.201Z,0
2019-03-06T20:37:11.180Z,0
2019-03-06T20:40:17.321Z,0
2019-03-06T20:43:23.508Z,0
2019-03-06T20:46:29.678Z,0
2019-03-06T20:49:35.714Z,0
2019-03-06T20:52:41.884Z,0
2019-03-06T20:55:48.734Z,0
2019-03-06T20:58:54.996Z,0
2019-03-06T21:02:03.953Z,0
2019-03-06T21:05:12.606Z,0
2019-03-06T21:08:18.792Z,0
2019-03-06T21:11:24.926Z,0
2019-03-06T21:14:30.964Z,0
2019-03-06T21:17:37.973Z,0
2019-03-06T21:20:44.854Z,0
2019-03-06T21:23:51.738Z,0
2019-03-06T21:26:57.872Z,0
2019-03-06T21:30:06.733Z,0
2019-03-06T21:33:12.793Z,0
2019-03-06T21:36:18.753Z,0
2019-03-06T21:39:24.811Z,0
2019-03-06T21:42:30.877Z,0
2019-03-06T21:45:37.254Z,0
2019-03-06T21:48:43.487Z,0
2019-03-06T21:51:50.194Z,0
2019-03-06T21:54:58.843Z,0
2019-03-06T21:58:05.995Z,0
2019-03-06T22:01:12.261Z,0
2019-03-06T22:04:20.883Z,0
2019-03-06T22:07:26.782Z,0
2019-03-06T22:10:32.803Z,0
2019-03-06T22:13:39.363Z,0
2019-03-06T22:16:46.044Z,0
2019-03-06T22:19:52.322Z,0
2019-03-06T22:22:58.458Z,0
2019-03-06T22:26:04.547Z,0
2019-03-06T22:29:12.584Z,0
2019-03-06T22:32:18.910Z,0
2019-03-06T22:35:24.989Z,0
2019-03-06T22:38:30.944Z,0
2019-03-06T22:41:37.009Z,0
2019-03-06T22:44:43.581Z,0
2019-03-06T22:47:52.205Z,0
2019-03-06T22:50:58.160Z,0
2019-03-06T22:54:07.244Z,0
2019-03-06T22:57:14.126Z,0
2019-03-06T23:00:20.662Z,0
2019-03-06T23:03:26.923Z,0
2019-03-06T23:06:35.491Z,0
2019-03-06T23:09:41.579Z,0
2019-03-06T23:12:47.675Z,0
2019-03-06T23:15:56.383Z,0
2019-03-06T23:19:02.423Z,0
2019-03-06T23:22:08.504Z,0
2019-03-06T23:25:14.472Z,0
2019-03-06T23:28:22.574Z,0
2019-03-06T23:31:29.536Z,0
2019-03-06T23:34:36.025Z,0
2019-03-06T23:37:41.999Z,0
2019-03-06T23:40:47.965Z,0
2019-03-06T23:43:54.011Z,0
2019-03-06T23:47:00.054Z,0
2019-03-06T23:50:06.256Z,0
2019-03-06T23:53:13.446Z,0
2019-03-06T23:56:19.710Z,0
2019-03-06T23:59:28.441Z,0
